Mexico City, DIF, Mexico
Current Conditions -  °F | °C
As of 9:42 PM on Thursday 30 Oct 2014 (Local Time) from MMMX Reporting Station
Scattered Clouds Scattered Clouds  
Wind Chill: 57°   Ceiling: Unl
Heat Index: 57°   Visibility: 8mi
Dew Point: 45°   Wind: 12mph
Humidity: 63%   Direction: 330°NNW
Pressure: 30.38"   Gusts: NA
Location:  19.43°N, 99.14°W
Report Text: MMMX 310342Z 33010KT 8SM SCT020 SCT080 14/07 A3038 NOSIG RMK 8/530 HZY
Loading
Personal Weather Stations






























Interactive Weather Map
Tropical Storm Tracking
New forecast layout! Learn more

10-Day Weather Forecast

Advertisements
Track Severe Weather on mobile